Rehoboth Beach, DE (19971)

5:01 PM EDT on August 30, 2016 (GMT -0400)
Funland and the Boardwalk | | Change Station
Active Advisory: Beach Hazard Statement

Elev 33 ft 38.71 °N, 75.08 °W | Updated 6 minutes ago

Clear
Clear
78.8 °F
Feels Like 82 °F
N
7.0
Wind Variable Wind from SSE

Today
High -- | Low -- °F
--% Chance of Precip.
Yesterday
High -- | Low -- °F
Precip. -- in
Pressure 30.05 in
Visibility 10.0 miles
Clouds Clear
Heat Index 82 °F
Dew Point 74 °F
Humidity 86%
Rainfall 0.00 in
Snow Depth Not available.
6:28 AM 7:32 PM
Waning Crescent, 2% visible
METAR KGED 302054Z AUTO 12009KT 10SM CLR 29/22 A3005 RMK AO2 SLP176 T02890217 56012
Pressure 30.05 in
Visibility 10.0 miles
Clouds Clear
Heat Index 82 °F
Dew Point 74 °F
Humidity 86%
Rainfall 0.00 in
Snow Depth Not available.
6:28 AM 7:32 PM
Waning Crescent, 2% visible
METAR KGED 302054Z AUTO 12009KT 10SM CLR 29/22 A3005 RMK AO2 SLP176 T02890217 56012

10-Day Weather Forecast

Almanac

Astronomy

Aug. 30, 2016 Rise Set
Actual Time
Civil Twilight
Nautical Twilight
Astronomical Twilight
Moon
Length of Visible Light
Length of Day
Tomorrow will be .
, % of the Moon is Illuminated

Today's Extremes

State Highs State Lows

Community

WunderPhotos

Upload Photos

1,935,894 photos uploaded!

WunderBlog® & News

Nearby

Air Quality

  Air Quality AQ Index Pollutant
Not available.

Snow Depth

Station Depth Elevation

Earthquake Activity

City Distance Mag. Time & Date
Minimum magnitude displayed is 2.5.

Coastal Water Temperatures

Place Temperature

Stations

Nearby Weather Stations

Station Location Temp. Windchill Dew Point Humidity Wind Precip. Elev Updated Type
                   

Watches & Warnings

Beach Hazard Statement
Issued: 3:41 PM EDT Aug. 30, 2016 – National Weather Service

... Beach hazards statement remains in effect through Wednesday
evening...

For the rest of this evening and through Wednesday... there is the
potential for dangerous rip currents. Swim only in designated
areas patrolled by lifeguards.

While the swells will decrease ever so slowly on Wednesday... a
moderate risk for the formation of dangerous rip currents will
probably continue into Wednesday evening.

The large breakers in the beach swimming zone can also knock
swimmers and waders into the sand... causing injury.

It is strongly advised to swim only in designated areas watched
by lifeguards. Swimming after the lifeguards go home or where
lifeguards do not have you in sight raises the risk of injury or
death due to rip currents.

Precautionary/preparedness actions...

A beach hazards statement is issued when threats such as rip
currents... longshore currents... sneaker waves and other hazards
create life-threatening conditions in the surf zone. Caution
should be used when in or near the water.


Mps